createdAt,value
2017-12-10T10:10:33.479Z,7.93
2017-12-10T10:13:01.176Z,7.95
2017-12-10T10:15:28.804Z,7.81
2017-12-10T10:17:56.551Z,7.51
2017-12-10T10:20:24.172Z,7.41
2017-12-10T10:22:51.847Z,7.51
2017-12-10T10:25:19.570Z,7.84
2017-12-10T10:27:47.196Z,7.86
2017-12-10T10:30:14.884Z,8.09
2017-12-10T10:32:42.563Z,7.94
2017-12-10T10:35:10.186Z,8.11
2017-12-10T10:37:37.819Z,8.25
2017-12-10T10:40:05.510Z,8.17
2017-12-10T10:42:33.128Z,7.95
2017-12-10T10:45:00.828Z,8.08
2017-12-10T10:47:28.582Z,8.48
2017-12-10T10:49:56.273Z,8.74
2017-12-10T10:52:23.892Z,9.39
2017-12-10T10:54:51.562Z,9.25
2017-12-10T10:57:19.172Z,8.81
2017-12-10T10:59:46.791Z,8.86
2017-12-10T11:02:14.477Z,8.70
2017-12-10T11:04:42.103Z,9.08
2017-12-10T11:07:09.792Z,9.22
2017-12-10T11:09:37.465Z,9.55
2017-12-10T11:12:05.088Z,9.71
2017-12-10T11:14:32.693Z,9.90
2017-12-10T11:17:00.428Z,9.61
2017-12-10T11:19:28.064Z,9.76
2017-12-10T11:21:55.747Z,8.73
2017-12-10T11:24:23.484Z,8.88
2017-12-10T11:26:51.101Z,8.88
2017-12-10T11:29:18.709Z,8.70
2017-12-10T11:31:46.400Z,8.43
2017-12-10T11:34:14.022Z,8.14
2017-12-10T11:36:41.671Z,7.91
2017-12-10T11:39:09.367Z,7.78
2017-12-10T11:41:37.015Z,7.13
2017-12-10T11:44:04.714Z,6.96
2017-12-10T11:46:32.517Z,6.81
2017-12-10T11:49:00.164Z,6.67
2017-12-10T11:51:27.843Z,6.38
2017-12-10T11:53:55.565Z,6.15
2017-12-10T11:56:23.184Z,5.98
2017-12-10T11:58:50.863Z,5.85
2017-12-10T12:01:18.572Z,5.81
2017-12-10T12:03:46.207Z,5.89
2017-12-10T12:06:13.836Z,5.82
2017-12-10T12:08:41.503Z,5.68
2017-12-10T12:11:09.116Z,5.63
2017-12-10T12:13:36.751Z,5.65
2017-12-10T12:16:04.427Z,5.64
2017-12-10T12:18:32.056Z,5.65
2017-12-10T12:20:59.671Z,5.71
2017-12-10T12:23:27.400Z,5.71
2017-12-10T12:25:55.091Z,5.64
2017-12-10T12:28:22.799Z,5.61
2017-12-10T12:30:50.518Z,5.60
2017-12-10T12:33:18.139Z,5.58
2017-12-10T12:35:45.760Z,5.47
2017-12-10T12:38:13.440Z,5.39
2017-12-10T12:40:41.063Z,5.42
2017-12-10T12:43:08.670Z,5.42
2017-12-10T12:45:36.339Z,5.45
2017-12-10T12:48:03.964Z,5.36
2017-12-10T12:50:31.593Z,5.41
2017-12-10T12:52:59.271Z,5.48
2017-12-10T12:55:26.888Z,5.48
2017-12-10T12:57:54.576Z,5.40
2017-12-10T13:00:22.262Z,5.41
2017-12-10T13:02:49.903Z,5.42
2017-12-10T13:05:17.535Z,5.35
2017-12-10T13:07:45.263Z,5.40
2017-12-10T13:10:12.942Z,5.35
2017-12-10T13:12:40.562Z,5.29
2017-12-10T13:15:08.313Z,5.20
2017-12-10T13:17:35.936Z,5.18
2017-12-10T13:20:03.572Z,5.14
2017-12-10T13:22:31.251Z,5.10
2017-12-10T13:24:58.871Z,5.03
2017-12-10T13:27:26.507Z,4.94
2017-12-10T13:29:54.196Z,4.95
2017-12-10T13:32:21.813Z,4.91
2017-12-10T13:34:49.426Z,4.83
2017-12-10T13:37:17.139Z,4.80
2017-12-10T13:39:44.776Z,4.81
2017-12-10T13:42:12.407Z,4.74
2017-12-10T13:44:40.095Z,4.70
2017-12-10T13:47:07.733Z,4.65
2017-12-10T13:49:35.367Z,4.59
2017-12-10T13:52:03.058Z,4.50
2017-12-10T13:54:30.739Z,4.46
2017-12-10T13:56:58.371Z,4.47
2017-12-10T13:59:26.045Z,4.42
2017-12-10T14:01:53.689Z,4.39
2017-12-10T14:04:21.391Z,4.31
2017-12-10T14:06:49.085Z,4.24
2017-12-10T14:09:16.715Z,4.12
2017-12-10T14:11:44.374Z,4.06
2017-12-10T14:14:12.048Z,4.05
2017-12-10T14:16:39.754Z,3.92
2017-12-10T14:19:07.362Z,3.84
2017-12-10T14:21:35.091Z,3.78
2017-12-10T14:24:02.790Z,3.72
2017-12-10T14:26:31.353Z,3.66
2017-12-10T14:28:59.042Z,3.63
2017-12-10T14:31:26.665Z,3.52
2017-12-10T14:33:54.359Z,3.59
2017-12-10T14:36:22.043Z,3.47
2017-12-10T14:38:49.749Z,3.41
2017-12-10T14:41:17.431Z,3.33
2017-12-10T14:43:45.121Z,3.25
2017-12-10T14:46:12.815Z,3.22
2017-12-10T14:48:40.446Z,3.11
2017-12-10T14:51:09.070Z,2.99
2017-12-10T14:53:36.753Z,2.92
2017-12-10T14:56:04.443Z,2.87
2017-12-10T14:58:32.179Z,2.80
2017-12-10T15:00:59.822Z,2.70
2017-12-10T15:03:27.560Z,2.69
2017-12-10T15:05:55.261Z,2.61
2017-12-10T15:08:22.887Z,2.58
2017-12-10T15:10:50.539Z,2.53
2017-12-10T15:13:18.293Z,2.45
2017-12-10T15:15:45.968Z,2.31
2017-12-10T15:18:13.688Z,2.20
2017-12-10T15:20:41.368Z,2.17
2017-12-10T15:23:09.003Z,2.12
2017-12-10T15:25:36.703Z,2.05
2017-12-10T15:28:04.447Z,2.03
2017-12-10T15:30:32.091Z,1.97
2017-12-10T15:32:59.719Z,1.96
2017-12-10T15:35:27.518Z,2.06
2017-12-10T15:37:55.144Z,2.04
2017-12-10T15:40:22.767Z,1.95
2017-12-10T15:42:50.443Z,1.88
2017-12-10T15:45:18.067Z,1.92
2017-12-10T15:47:45.726Z,1.89
2017-12-10T15:50:13.471Z,1.89
2017-12-10T15:52:41.099Z,1.76
2017-12-10T15:55:08.722Z,1.66
2017-12-10T15:57:36.431Z,1.59
2017-12-10T16:00:04.067Z,1.43
2017-12-10T16:02:31.791Z,1.37
2017-12-10T16:04:59.549Z,1.30
2017-12-10T16:07:27.287Z,1.25
2017-12-10T16:09:54.993Z,1.23
2017-12-10T16:12:22.670Z,1.21
2017-12-10T16:14:50.299Z,1.17
2017-12-10T16:17:17.928Z,1.16
2017-12-10T16:19:45.633Z,1.09
2017-12-10T16:22:13.251Z,1.00
2017-12-10T16:24:40.887Z,0.95
2017-12-10T16:27:08.563Z,0.88
2017-12-10T16:29:36.187Z,0.82
2017-12-10T16:32:03.818Z,0.72
2017-12-10T16:34:31.552Z,0.70
2017-12-10T16:36:59.187Z,0.78
2017-12-10T16:39:26.822Z,0.74
2017-12-10T16:41:54.547Z,0.79
2017-12-10T16:44:22.192Z,0.77
2017-12-10T16:46:49.967Z,0.74
2017-12-10T16:49:17.663Z,0.75
2017-12-10T16:51:45.298Z,0.75
2017-12-10T16:54:12.983Z,0.65
2017-12-10T16:56:40.665Z,0.66
2017-12-10T16:59:08.287Z,0.61
2017-12-10T17:01:36.073Z,0.53
2017-12-10T17:04:03.775Z,0.48
2017-12-10T17:06:31.403Z,0.37
2017-12-10T17:08:59.037Z,0.29
2017-12-10T17:11:26.758Z,0.22
2017-12-10T17:13:54.460Z,0.17
2017-12-10T17:16:22.284Z,0.15
2017-12-10T17:18:50.027Z,0.13
2017-12-10T17:21:17.658Z,0.15
2017-12-10T17:23:45.291Z,0.18
2017-12-10T17:26:13.067Z,0.18
2017-12-10T17:28:40.700Z,0.15
2017-12-10T17:31:08.382Z,0.08
2017-12-10T17:33:36.095Z,-0.01
2017-12-10T17:36:03.791Z,-0.03
2017-12-10T17:38:31.438Z,-0.07
2017-12-10T17:40:59.202Z,-0.09
2017-12-10T17:43:26.895Z,-0.10
2017-12-10T17:45:54.527Z,-0.13
2017-12-10T17:48:22.268Z,-0.12
2017-12-10T17:50:49.960Z,-0.07
2017-12-10T17:53:17.692Z,-0.05
2017-12-10T17:55:45.483Z,-0.07
2017-12-10T17:58:13.123Z,-0.09
2017-12-10T18:00:40.955Z,-0.16
2017-12-10T18:03:08.699Z,-0.23
2017-12-10T18:05:36.322Z,-0.24
2017-12-10T18:08:03.955Z,-0.26
2017-12-10T18:10:31.655Z,-0.23
2017-12-10T18:12:59.347Z,-0.28
2017-12-10T18:15:27.047Z,-0.22
2017-12-10T18:17:54.740Z,-0.21
2017-12-10T18:20:22.380Z,-0.25
2017-12-10T18:22:50.077Z,-0.29
2017-12-10T18:25:17.818Z,-0.35
2017-12-10T18:27:45.459Z,-0.39
2017-12-10T18:30:13.092Z,-0.47
2017-12-10T18:32:40.844Z,-0.54
2017-12-10T18:35:08.475Z,-0.49
2017-12-10T18:37:36.103Z,-0.52
2017-12-10T18:40:03.851Z,-0.54
2017-12-10T18:42:31.550Z,-0.56
2017-12-10T18:44:59.211Z,-0.60
2017-12-10T18:47:26.895Z,-0.60
2017-12-10T18:49:54.506Z,-0.67
2017-12-10T18:52:22.144Z,-0.71
2017-12-10T18:54:49.854Z,-0.71
2017-12-10T18:57:17.551Z,-0.73
2017-12-10T18:59:45.173Z,-0.76
2017-12-10T19:02:12.847Z,-0.78
2017-12-10T19:04:40.475Z,-0.78
2017-12-10T19:07:08.160Z,-0.77
2017-12-10T19:09:35.956Z,-0.75
2017-12-10T19:12:03.627Z,-0.78
2017-12-10T19:14:31.272Z,-0.82
2017-12-10T19:16:59.015Z,-0.81
2017-12-10T19:19:26.671Z,-0.84
2017-12-10T19:21:54.468Z,-0.82
2017-12-10T19:24:22.151Z,-0.82
2017-12-10T19:26:49.812Z,-0.78
2017-12-10T19:29:17.521Z,-0.82
2017-12-10T19:31:45.235Z,-0.82
2017-12-10T19:34:12.952Z,-0.82
2017-12-10T19:36:40.631Z,-0.92
2017-12-10T19:39:08.371Z,-0.99
2017-12-10T19:41:36.009Z,-1.03
2017-12-10T19:44:03.659Z,-1.02
2017-12-10T19:46:31.343Z,-1.04
2017-12-10T19:48:58.996Z,-1.11
2017-12-10T19:51:26.700Z,-1.20
2017-12-10T19:53:54.450Z,-1.32
2017-12-10T19:56:22.159Z,-1.34
2017-12-10T19:58:49.852Z,-1.30
2017-12-10T20:01:17.545Z,-1.25
2017-12-10T20:03:45.222Z,-1.23
2017-12-10T20:06:12.900Z,-1.15
2017-12-10T20:08:40.592Z,-1.10
2017-12-10T20:11:08.220Z,-1.10
2017-12-10T20:13:35.839Z,-1.08
2017-12-10T20:16:03.620Z,-1.11
2017-12-10T20:18:31.309Z,-1.14
2017-12-10T20:20:58.934Z,-1.23
2017-12-10T20:23:26.620Z,-1.29
2017-12-10T20:25:54.251Z,-1.36
2017-12-10T20:28:21.936Z,-1.36
2017-12-10T20:30:49.684Z,-1.32
2017-12-10T20:33:17.311Z,-1.24
2017-12-10T20:35:44.947Z,-1.27
2017-12-10T20:38:12.634Z,-1.27
2017-12-10T20:40:40.260Z,-1.19
2017-12-10T20:43:07.896Z,-1.14
2017-12-10T20:45:35.601Z,-1.17
2017-12-10T20:48:03.295Z,-1.15
2017-12-10T20:50:30.946Z,-1.14
2017-12-10T20:52:58.643Z,-1.14
2017-12-10T20:55:26.327Z,-1.24
2017-12-10T20:57:54.019Z,-1.20
2017-12-10T21:00:21.814Z,-1.29
2017-12-10T21:02:49.540Z,-1.28
2017-12-10T21:05:17.204Z,-1.29
2017-12-10T21:07:44.916Z,-1.34
2017-12-10T21:10:12.683Z,-1.37
2017-12-10T21:12:40.411Z,-1.47
2017-12-10T21:15:08.099Z,-1.49
2017-12-10T21:17:35.731Z,-1.42
2017-12-10T21:20:03.411Z,-1.41
2017-12-10T21:22:31.100Z,-1.39
2017-12-10T21:24:58.762Z,-1.43
2017-12-10T21:27:26.414Z,-1.36
2017-12-10T21:29:54.118Z,-1.32
2017-12-10T21:32:21.765Z,-1.26
2017-12-10T21:34:49.480Z,-1.15
2017-12-10T21:37:17.240Z,-1.11
2017-12-10T21:39:44.940Z,-1.17
2017-12-10T21:42:12.567Z,-1.23
2017-12-10T21:44:40.252Z,-1.35
2017-12-10T21:47:07.886Z,-1.39
2017-12-10T21:49:35.519Z,-1.40
2017-12-10T21:52:03.198Z,-1.44
2017-12-10T21:54:30.836Z,-1.51
2017-12-10T21:56:58.463Z,-1.54
2017-12-10T21:59:26.160Z,-1.55
2017-12-10T22:01:53.791Z,-1.56
2017-12-10T22:04:21.419Z,-1.59
2017-12-10T22:06:49.091Z,-1.61
2017-12-10T22:09:16.744Z,-1.62
2017-12-10T22:11:44.440Z,-1.56
2017-12-10T22:14:12.127Z,-1.52
2017-12-10T22:16:39.755Z,-1.54
2017-12-10T22:19:07.391Z,-1.53
2017-12-10T22:21:35.060Z,-1.49
2017-12-10T22:24:02.738Z,-1.52
2017-12-10T22:26:30.371Z,-1.53
2017-12-10T22:28:58.140Z,-1.52
2017-12-10T22:31:25.768Z,-1.49
2017-12-10T22:33:53.388Z,-1.50
2017-12-10T22:36:21.081Z,-1.50
2017-12-10T22:38:48.817Z,-1.51
2017-12-10T22:41:16.454Z,-1.52
2017-12-10T22:43:44.142Z,-1.50
2017-12-10T22:46:11.820Z,-1.41
2017-12-10T22:48:39.422Z,-1.29
2017-12-10T22:51:07.210Z,-1.35
2017-12-10T22:53:34.833Z,-1.31
2017-12-10T22:56:02.443Z,-1.35
2017-12-10T22:58:30.111Z,-1.35
2017-12-10T23:00:57.785Z,-1.32
2017-12-10T23:03:25.448Z,-1.28
2017-12-10T23:05:53.130Z,-1.23
2017-12-10T23:08:20.738Z,-1.19
2017-12-10T23:10:48.344Z,-1.20
2017-12-10T23:13:16.007Z,-1.15
2017-12-10T23:15:43.622Z,-1.06
2017-12-10T23:18:11.295Z,-1.03
2017-12-10T23:20:38.963Z,-1.07
2017-12-10T23:23:06.625Z,-1.04
2017-12-10T23:25:34.267Z,-1.05
2017-12-10T23:28:01.924Z,-0.92
2017-12-10T23:30:29.672Z,-0.80
2017-12-10T23:32:57.299Z,-0.75
2017-12-10T23:35:25.026Z,-0.76
2017-12-10T23:37:52.646Z,-0.77
2017-12-10T23:40:20.310Z,-0.86
2017-12-10T23:42:48.044Z,-0.96
2017-12-10T23:45:15.668Z,-0.93
2017-12-10T23:47:43.282Z,-0.86
2017-12-10T23:50:10.955Z,-0.86
2017-12-10T23:52:38.633Z,-0.93
2017-12-10T23:55:06.239Z,-0.99
2017-12-10T23:57:33.956Z,-1.09
